sensor_id;sensor_type;location;lat;lon;timestamp;P1;durP1;ratioP1;P2;durP2;ratioP2
37937;SDS011;23763;48.130;11.602;2022-09-12T00:01:36;7.07;;;6.50;;
37937;SDS011;23763;48.130;11.602;2022-09-12T00:04:01;6.47;;;6.00;;
37937;SDS011;23763;48.130;11.602;2022-09-12T00:06:32;6.57;;;6.20;;
37937;SDS011;23763;48.130;11.602;2022-09-12T00:09:00;7.15;;;6.55;;
37937;SDS011;23763;48.130;11.602;2022-09-12T00:11:29;6.82;;;6.43;;
37937;SDS011;23763;48.130;11.602;2022-09-12T00:13:56;6.90;;;6.45;;
37937;SDS011;23763;48.130;11.602;2022-09-12T00:16:24;7.18;;;6.47;;
37937;SDS011;23763;48.130;11.602;2022-09-12T00:18:51;7.75;;;7.03;;
37937;SDS011;23763;48.130;11.602;2022-09-12T00:21:17;7.15;;;6.65;;
37937;SDS011;23763;48.130;11.602;2022-09-12T00:23:45;7.10;;;6.70;;
37937;SDS011;23763;48.130;11.602;2022-09-12T00:26:12;7.55;;;6.95;;
37937;SDS011;23763;48.130;11.602;2022-09-12T00:28:38;6.85;;;6.47;;
37937;SDS011;23763;48.130;11.602;2022-09-12T00:31:06;7.22;;;6.82;;
37937;SDS011;23763;48.130;11.602;2022-09-12T00:33:34;6.88;;;6.38;;
37937;SDS011;23763;48.130;11.602;2022-09-12T00:36:03;8.40;;;6.97;;
37937;SDS011;23763;48.130;11.602;2022-09-12T00:38:31;6.97;;;6.57;;
37937;SDS011;23763;48.130;11.602;2022-09-12T00:40:57;7.50;;;7.00;;
37937;SDS011;23763;48.130;11.602;2022-09-12T00:45:55;7.03;;;6.47;;
37937;SDS011;23763;48.130;11.602;2022-09-12T00:48:25;7.07;;;6.47;;
37937;SDS011;23763;48.130;11.602;2022-09-12T00:50:59;6.88;;;6.47;;
37937;SDS011;23763;48.130;11.602;2022-09-12T00:53:25;6.25;;;5.85;;
37937;SDS011;23763;48.130;11.602;2022-09-12T00:55:51;6.75;;;6.30;;
37937;SDS011;23763;48.130;11.602;2022-09-12T00:58:19;6.82;;;6.43;;
37937;SDS011;23763;48.130;11.602;2022-09-12T01:00:49;6.80;;;6.18;;
37937;SDS011;23763;48.130;11.602;2022-09-12T01:03:16;7.28;;;6.43;;
37937;SDS011;23763;48.130;11.602;2022-09-12T01:06:05;6.78;;;6.22;;
37937;SDS011;23763;48.130;11.602;2022-09-12T01:08:40;6.32;;;6.00;;
37937;SDS011;23763;48.130;11.602;2022-09-12T01:11:07;6.30;;;6.00;;
37937;SDS011;23763;48.130;11.602;2022-09-12T01:13:35;6.40;;;6.07;;
37937;SDS011;23763;48.130;11.602;2022-09-12T01:16:05;6.38;;;6.07;;
37937;SDS011;23763;48.130;11.602;2022-09-12T01:43:10;6.43;;;6.13;;
37937;SDS011;23763;48.130;11.602;2022-09-12T01:45:55;5.97;;;5.68;;
37937;SDS011;23763;48.130;11.602;2022-09-12T01:48:32;6.30;;;6.00;;
37937;SDS011;23763;48.130;11.602;2022-09-12T01:53:47;7.70;;;7.20;;
37937;SDS011;23763;48.130;11.602;2022-09-12T01:56:21;6.28;;;5.97;;
37937;SDS011;23763;48.130;11.602;2022-09-12T02:01:45;6.38;;;6.07;;
37937;SDS011;23763;48.130;11.602;2022-09-12T02:04:33;5.68;;;5.38;;
37937;SDS011;23763;48.130;11.602;2022-09-12T02:07:14;6.13;;;5.82;;
37937;SDS011;23763;48.130;11.602;2022-09-12T02:09:46;6.47;;;6.03;;
37937;SDS011;23763;48.130;11.602;2022-09-12T02:12:19;6.22;;;5.93;;
37937;SDS011;23763;48.130;11.602;2022-09-12T02:14:55;5.75;;;5.53;;
37937;SDS011;23763;48.130;11.602;2022-09-12T02:17:26;6.10;;;5.70;;
37937;SDS011;23763;48.130;11.602;2022-09-12T02:19:55;5.93;;;5.63;;
37937;SDS011;23763;48.130;11.602;2022-09-12T02:22:26;6.32;;;5.93;;
37937;SDS011;23763;48.130;11.602;2022-09-12T02:24:54;5.90;;;5.60;;
37937;SDS011;23763;48.130;11.602;2022-09-12T02:27:29;5.93;;;5.63;;
37937;SDS011;23763;48.130;11.602;2022-09-12T02:29:56;5.97;;;5.70;;
37937;SDS011;23763;48.130;11.602;2022-09-12T02:32:29;6.40;;;5.90;;
37937;SDS011;23763;48.130;11.602;2022-09-12T02:50:53;6.10;;;5.75;;
37937;SDS011;23763;48.130;11.602;2022-09-12T02:53:20;6.07;;;5.78;;
37937;SDS011;23763;48.130;11.602;2022-09-12T02:55:46;6.25;;;5.95;;
37937;SDS011;23763;48.130;11.602;2022-09-12T02:58:14;6.03;;;5.72;;
37937;SDS011;23763;48.130;11.602;2022-09-12T03:01:07;5.43;;;5.22;;
37937;SDS011;23763;48.130;11.602;2022-09-12T03:08:57;5.80;;;5.47;;
37937;SDS011;23763;48.130;11.602;2022-09-12T03:11:39;5.55;;;5.35;;
37937;SDS011;23763;48.130;11.602;2022-09-12T03:17:00;6.07;;;5.53;;
37937;SDS011;23763;48.130;11.602;2022-09-12T03:27:18;5.63;;;5.32;;
37937;SDS011;23763;48.130;11.602;2022-09-12T03:29:54;5.88;;;5.43;;
37937;SDS011;23763;48.130;11.602;2022-09-12T03:32:38;6.20;;;5.90;;
37937;SDS011;23763;48.130;11.602;2022-09-12T03:35:05;5.95;;;5.65;;
37937;SDS011;23763;48.130;11.602;2022-09-12T03:37:31;6.00;;;5.70;;
37937;SDS011;23763;48.130;11.602;2022-09-12T03:39:56;5.95;;;5.65;;
37937;SDS011;23763;48.130;11.602;2022-09-12T03:42:22;6.00;;;5.60;;
37937;SDS011;23763;48.130;11.602;2022-09-12T03:44:48;5.95;;;5.50;;
37937;SDS011;23763;48.130;11.602;2022-09-12T03:47:13;6.05;;;5.82;;
37937;SDS011;23763;48.130;11.602;2022-09-12T03:49:39;6.07;;;5.82;;
37937;SDS011;23763;48.130;11.602;2022-09-12T03:52:05;6.30;;;6.00;;
37937;SDS011;23763;48.130;11.602;2022-09-12T03:54:30;5.60;;;5.30;;
37937;SDS011;23763;48.130;11.602;2022-09-12T03:56:56;6.10;;;5.80;;
37937;SDS011;23763;48.130;11.602;2022-09-12T03:59:22;5.65;;;5.35;;
37937;SDS011;23763;48.130;11.602;2022-09-12T04:01:47;5.63;;;5.43;;
37937;SDS011;23763;48.130;11.602;2022-09-12T04:04:13;5.82;;;5.60;;
37937;SDS011;23763;48.130;11.602;2022-09-12T04:06:39;5.75;;;5.45;;
37937;SDS011;23763;48.130;11.602;2022-09-12T04:09:05;5.95;;;5.50;;
37937;SDS011;23763;48.130;11.602;2022-09-12T04:11:31;5.50;;;5.30;;
37937;SDS011;23763;48.130;11.602;2022-09-12T04:13:57;6.25;;;5.95;;
37937;SDS011;23763;48.130;11.602;2022-09-12T04:16:23;6.40;;;5.90;;
37937;SDS011;23763;48.130;11.602;2022-09-12T04:18:48;5.93;;;5.40;;
37937;SDS011;23763;48.130;11.602;2022-09-12T04:21:16;5.72;;;5.53;;
37937;SDS011;23763;48.130;11.602;2022-09-12T04:23:43;5.75;;;5.45;;
37937;SDS011;23763;48.130;11.602;2022-09-12T04:26:09;5.90;;;5.60;;
37937;SDS011;23763;48.130;11.602;2022-09-12T04:28:37;6.15;;;5.85;;
37937;SDS011;23763;48.130;11.602;2022-09-12T04:31:05;6.53;;;6.15;;
37937;SDS011;23763;48.130;11.602;2022-09-12T04:33:33;6.53;;;6.22;;
37937;SDS011;23763;48.130;11.602;2022-09-12T04:36:07;6.47;;;6.18;;
37937;SDS011;23763;48.130;11.602;2022-09-12T04:38:35;6.43;;;5.97;;
37937;SDS011;23763;48.130;11.602;2022-09-12T04:41:15;6.32;;;6.03;;
37937;SDS011;23763;48.130;11.602;2022-09-12T04:43:45;6.15;;;5.85;;
37937;SDS011;23763;48.130;11.602;2022-09-12T04:46:13;6.70;;;6.10;;
37937;SDS011;23763;48.130;11.602;2022-09-12T04:48:41;6.28;;;5.97;;
37937;SDS011;23763;48.130;11.602;2022-09-12T04:53:49;5.40;;;5.20;;
37937;SDS011;23763;48.130;11.602;2022-09-12T04:56:16;5.50;;;5.30;;
37937;SDS011;23763;48.130;11.602;2022-09-12T04:58:42;5.65;;;5.30;;
37937;SDS011;23763;48.130;11.602;2022-09-12T05:01:09;5.63;;;5.43;;
37937;SDS011;23763;48.130;11.602;2022-09-12T05:03:35;6.05;;;5.78;;
37937;SDS011;23763;48.130;11.602;2022-09-12T05:06:06;6.05;;;5.60;;
37937;SDS011;23763;48.130;11.602;2022-09-12T05:08:33;5.85;;;5.65;;
37937;SDS011;23763;48.130;11.602;2022-09-12T05:11:22;6.00;;;5.70;;
37937;SDS011;23763;48.130;11.602;2022-09-12T05:13:52;7.18;;;6.18;;
37937;SDS011;23763;48.130;11.602;2022-09-12T05:16:19;5.90;;;5.60;;
37937;SDS011;23763;48.130;11.602;2022-09-12T05:18:45;6.57;;;6.07;;
37937;SDS011;23763;48.130;11.602;2022-09-12T05:21:13;6.13;;;5.82;;
37937;SDS011;23763;48.130;11.602;2022-09-12T05:23:40;6.65;;;6.13;;
37937;SDS011;23763;48.130;11.602;2022-09-12T05:26:06;6.32;;;5.88;;
37937;SDS011;23763;48.130;11.602;2022-09-12T05:28:33;6.40;;;5.90;;
37937;SDS011;23763;48.130;11.602;2022-09-12T05:31:04;5.95;;;5.55;;
37937;SDS011;23763;48.130;11.602;2022-09-12T05:33:33;6.20;;;5.90;;
37937;SDS011;23763;48.130;11.602;2022-09-12T05:36:02;5.82;;;5.53;;
37937;SDS011;23763;48.130;11.602;2022-09-12T05:38:29;5.88;;;5.40;;
37937;SDS011;23763;48.130;11.602;2022-09-12T05:41:02;5.85;;;5.63;;
37937;SDS011;23763;48.130;11.602;2022-09-12T05:43:34;6.20;;;5.80;;
37937;SDS011;23763;48.130;11.602;2022-09-12T05:46:05;5.90;;;5.55;;
37937;SDS011;23763;48.130;11.602;2022-09-12T05:48:33;6.38;;;5.97;;
37937;SDS011;23763;48.130;11.602;2022-09-12T05:51:04;6.60;;;5.97;;
37937;SDS011;23763;48.130;11.602;2022-09-12T05:53:33;6.18;;;5.88;;
37937;SDS011;23763;48.130;11.602;2022-09-12T05:58:34;6.57;;;5.97;;
37937;SDS011;23763;48.130;11.602;2022-09-12T06:01:04;5.97;;;5.68;;
37937;SDS011;23763;48.130;11.602;2022-09-12T06:03:32;6.90;;;6.40;;
37937;SDS011;23763;48.130;11.602;2022-09-12T06:06:04;6.28;;;5.93;;
37937;SDS011;23763;48.130;11.602;2022-09-12T06:08:32;6.32;;;5.80;;
37937;SDS011;23763;48.130;11.602;2022-09-12T06:10:59;6.32;;;6.03;;
37937;SDS011;23763;48.130;11.602;2022-09-12T06:13:27;6.10;;;5.72;;
37937;SDS011;23763;48.130;11.602;2022-09-12T06:15:52;6.75;;;6.18;;
37937;SDS011;23763;48.130;11.602;2022-09-12T06:18:18;6.35;;;6.05;;
37937;SDS011;23763;48.130;11.602;2022-09-12T06:20:45;6.35;;;6.05;;
37937;SDS011;23763;48.130;11.602;2022-09-12T06:23:11;6.38;;;5.88;;
37937;SDS011;23763;48.130;11.602;2022-09-12T06:25:36;6.68;;;6.18;;
37937;SDS011;23763;48.130;11.602;2022-09-12T06:28:02;6.60;;;6.10;;
37937;SDS011;23763;48.130;11.602;2022-09-12T06:30:28;12.85;;;8.20;;
37937;SDS011;23763;48.130;11.602;2022-09-12T06:32:54;6.30;;;5.82;;
37937;SDS011;23763;48.130;11.602;2022-09-12T06:35:21;6.75;;;6.32;;
37937;SDS011;23763;48.130;11.602;2022-09-12T06:37:47;6.55;;;6.20;;
37937;SDS011;23763;48.130;11.602;2022-09-12T06:40:13;6.03;;;5.72;;
37937;SDS011;23763;48.130;11.602;2022-09-12T06:42:39;6.55;;;6.15;;
37937;SDS011;23763;48.130;11.602;2022-09-12T06:45:05;7.00;;;6.50;;
37937;SDS011;23763;48.130;11.602;2022-09-12T06:47:31;6.88;;;6.38;;
37937;SDS011;23763;48.130;11.602;2022-09-12T06:49:57;7.20;;;6.72;;
37937;SDS011;23763;48.130;11.602;2022-09-12T06:52:23;7.28;;;6.78;;
37937;SDS011;23763;48.130;11.602;2022-09-12T06:54:48;7.20;;;6.68;;
37937;SDS011;23763;48.130;11.602;2022-09-12T06:57:14;6.90;;;6.50;;
37937;SDS011;23763;48.130;11.602;2022-09-12T06:59:40;6.85;;;6.55;;
37937;SDS011;23763;48.130;11.602;2022-09-12T07:02:07;6.93;;;6.43;;
37937;SDS011;23763;48.130;11.602;2022-09-12T07:04:33;8.23;;;5.90;;
37937;SDS011;23763;48.130;11.602;2022-09-12T07:07:01;6.78;;;6.38;;
37937;SDS011;23763;48.130;11.602;2022-09-12T07:09:26;7.00;;;6.47;;
37937;SDS011;23763;48.130;11.602;2022-09-12T07:11:54;6.50;;;5.97;;
37937;SDS011;23763;48.130;11.602;2022-09-12T07:14:20;9.68;;;6.20;;
37937;SDS011;23763;48.130;11.602;2022-09-12T07:16:46;6.82;;;6.07;;
37937;SDS011;23763;48.130;11.602;2022-09-12T07:19:12;7.07;;;6.45;;
37937;SDS011;23763;48.130;11.602;2022-09-12T07:21:38;8.70;;;6.65;;
37937;SDS011;23763;48.130;11.602;2022-09-12T07:24:08;6.80;;;6.30;;
37937;SDS011;23763;48.130;11.602;2022-09-12T07:26:34;6.78;;;6.20;;
37937;SDS011;23763;48.130;11.602;2022-09-12T07:29:00;7.15;;;6.57;;
37937;SDS011;23763;48.130;11.602;2022-09-12T07:31:26;7.93;;;6.78;;
37937;SDS011;23763;48.130;11.602;2022-09-12T07:33:53;7.03;;;6.43;;
37937;SDS011;23763;48.130;11.602;2022-09-12T07:36:19;7.00;;;6.40;;
37937;SDS011;23763;48.130;11.602;2022-09-12T07:38:47;6.97;;;6.47;;
37937;SDS011;23763;48.130;11.602;2022-09-12T07:41:20;6.38;;;5.78;;
37937;SDS011;23763;48.130;11.602;2022-09-12T07:43:59;6.20;;;5.90;;
37937;SDS011;23763;48.130;11.602;2022-09-12T07:46:27;6.28;;;5.88;;
37937;SDS011;23763;48.130;11.602;2022-09-12T07:48:54;6.05;;;5.65;;
37937;SDS011;23763;48.130;11.602;2022-09-12T07:51:21;6.10;;;5.80;;
37937;SDS011;23763;48.130;11.602;2022-09-12T07:53:49;6.03;;;5.60;;
37937;SDS011;23763;48.130;11.602;2022-09-12T07:56:16;6.20;;;5.80;;
37937;SDS011;23763;48.130;11.602;2022-09-12T07:58:43;5.88;;;5.57;;
37937;SDS011;23763;48.130;11.602;2022-09-12T08:01:10;6.03;;;5.60;;
37937;SDS011;23763;48.130;11.602;2022-09-12T08:03:38;5.50;;;5.20;;
37937;SDS011;23763;48.130;11.602;2022-09-12T08:08:48;6.03;;;5.72;;
37937;SDS011;23763;48.130;11.602;2022-09-12T08:11:15;6.07;;;5.78;;
37937;SDS011;23763;48.130;11.602;2022-09-12T08:13:42;6.15;;;5.85;;
37937;SDS011;23763;48.130;11.602;2022-09-12T08:16:13;6.13;;;5.82;;
37937;SDS011;23763;48.130;11.602;2022-09-12T08:18:40;5.75;;;5.45;;
37937;SDS011;23763;48.130;11.602;2022-09-12T08:21:08;6.00;;;5.60;;
37937;SDS011;23763;48.130;11.602;2022-09-12T08:23:39;6.20;;;5.90;;
37937;SDS011;23763;48.130;11.602;2022-09-12T08:26:05;6.07;;;5.85;;
37937;SDS011;23763;48.130;11.602;2022-09-12T08:28:32;5.95;;;5.65;;
37937;SDS011;23763;48.130;11.602;2022-09-12T08:31:01;5.95;;;5.68;;
37937;SDS011;23763;48.130;11.602;2022-09-12T08:33:29;5.53;;;5.32;;
37937;SDS011;23763;48.130;11.602;2022-09-12T08:38:38;6.10;;;5.80;;
37937;SDS011;23763;48.130;11.602;2022-09-12T08:49:33;6.72;;;6.32;;
37937;SDS011;23763;48.130;11.602;2022-09-12T08:54:53;9.43;;;8.75;;
37937;SDS011;23763;48.130;11.602;2022-09-12T08:57:20;7.22;;;6.82;;
37937;SDS011;23763;48.130;11.602;2022-09-12T08:59:48;6.38;;;6.07;;
37937;SDS011;23763;48.130;11.602;2022-09-12T09:04:50;6.93;;;6.50;;
37937;SDS011;23763;48.130;11.602;2022-09-12T09:10:06;6.20;;;5.85;;
37937;SDS011;23763;48.130;11.602;2022-09-12T09:18:21;7.03;;;6.43;;
37937;SDS011;23763;48.130;11.602;2022-09-12T09:20:56;5.88;;;5.68;;
37937;SDS011;23763;48.130;11.602;2022-09-12T09:23:32;5.85;;;5.65;;
37937;SDS011;23763;48.130;11.602;2022-09-12T09:26:12;6.50;;;6.20;;
37937;SDS011;23763;48.130;11.602;2022-09-12T09:28:47;6.65;;;6.25;;
37937;SDS011;23763;48.130;11.602;2022-09-12T09:31:15;7.03;;;6.70;;
37937;SDS011;23763;48.130;11.602;2022-09-12T09:33:42;6.60;;;6.22;;
37937;SDS011;23763;48.130;11.602;2022-09-12T09:45:12;6.38;;;6.07;;
37937;SDS011;23763;48.130;11.602;2022-09-12T09:47:51;7.30;;;6.90;;
37937;SDS011;23763;48.130;11.602;2022-09-12T09:50:23;6.90;;;6.53;;
37937;SDS011;23763;48.130;11.602;2022-09-12T09:52:50;6.68;;;6.38;;
37937;SDS011;23763;48.130;11.602;2022-09-12T09:55:19;6.70;;;6.40;;
37937;SDS011;23763;48.130;11.602;2022-09-12T09:57:48;6.80;;;6.40;;
37937;SDS011;23763;48.130;11.602;2022-09-12T10:00:29;7.18;;;6.78;;
37937;SDS011;23763;48.130;11.602;2022-09-12T10:03:01;7.13;;;6.82;;
37937;SDS011;23763;48.130;11.602;2022-09-12T10:05:34;6.60;;;6.30;;
37937;SDS011;23763;48.130;11.602;2022-09-12T10:08:08;6.57;;;6.30;;
37937;SDS011;23763;48.130;11.602;2022-09-12T10:10:35;6.50;;;6.20;;
37937;SDS011;23763;48.130;11.602;2022-09-12T10:13:09;6.55;;;6.15;;
37937;SDS011;23763;48.130;11.602;2022-09-12T10:16:03;7.18;;;6.63;;
37937;SDS011;23763;48.130;11.602;2022-09-12T10:18:32;7.03;;;6.53;;
37937;SDS011;23763;48.130;11.602;2022-09-12T10:24:26;6.72;;;6.43;;
37937;SDS011;23763;48.130;11.602;2022-09-12T10:27:07;6.85;;;6.55;;
37937;SDS011;23763;48.130;11.602;2022-09-12T10:29:35;7.07;;;6.65;;
37937;SDS011;23763;48.130;11.602;2022-09-12T10:32:10;7.00;;;6.50;;
37937;SDS011;23763;48.130;11.602;2022-09-12T10:34:43;6.82;;;6.53;;
37937;SDS011;23763;48.130;11.602;2022-09-12T10:37:16;6.80;;;6.50;;
37937;SDS011;23763;48.130;11.602;2022-09-12T10:39:47;7.03;;;6.57;;
37937;SDS011;23763;48.130;11.602;2022-09-12T10:42:17;6.93;;;6.50;;
37937;SDS011;23763;48.130;11.602;2022-09-12T10:45:27;7.03;;;6.50;;
37937;SDS011;23763;48.130;11.602;2022-09-12T10:48:02;6.35;;;6.10;;
37937;SDS011;23763;48.130;11.602;2022-09-12T10:50:45;25.98;;;7.85;;
37937;SDS011;23763;48.130;11.602;2022-09-12T10:53:19;19.85;;;7.22;;
37937;SDS011;23763;48.130;11.602;2022-09-12T11:03:57;6.80;;;6.40;;
37937;SDS011;23763;48.130;11.602;2022-09-12T11:07:01;6.93;;;6.53;;
37937;SDS011;23763;48.130;11.602;2022-09-12T11:12:11;6.80;;;6.50;;
37937;SDS011;23763;48.130;11.602;2022-09-12T11:15:02;6.65;;;6.25;;
37937;SDS011;23763;48.130;11.602;2022-09-12T11:17:48;7.10;;;6.60;;
37937;SDS011;23763;48.130;11.602;2022-09-12T11:25:37;6.78;;;6.47;;
37937;SDS011;23763;48.130;11.602;2022-09-12T11:33:40;6.70;;;6.30;;
37937;SDS011;23763;48.130;11.602;2022-09-12T11:36:11;7.20;;;6.53;;
37937;SDS011;23763;48.130;11.602;2022-09-12T11:38:50;7.25;;;6.85;;
37937;SDS011;23763;48.130;11.602;2022-09-12T11:41:24;6.68;;;6.25;;
37937;SDS011;23763;48.130;11.602;2022-09-12T11:47:05;7.22;;;6.68;;
37937;SDS011;23763;48.130;11.602;2022-09-12T11:52:19;6.72;;;6.43;;
37937;SDS011;23763;48.130;11.602;2022-09-12T12:00:21;6.57;;;6.28;;
37937;SDS011;23763;48.130;11.602;2022-09-12T12:05:30;6.28;;;5.97;;
37937;SDS011;23763;48.130;11.602;2022-09-12T12:08:03;6.80;;;6.30;;
37937;SDS011;23763;48.130;11.602;2022-09-12T12:10:52;6.88;;;6.57;;
37937;SDS011;23763;48.130;11.602;2022-09-12T12:13:38;6.88;;;6.38;;
37937;SDS011;23763;48.130;11.602;2022-09-12T12:16:17;6.00;;;5.72;;
37937;SDS011;23763;48.130;11.602;2022-09-12T12:18:55;6.40;;;6.10;;
37937;SDS011;23763;48.130;11.602;2022-09-12T12:31:58;7.10;;;6.65;;
37937;SDS011;23763;48.130;11.602;2022-09-12T12:34:31;6.40;;;6.00;;
37937;SDS011;23763;48.130;11.602;2022-09-12T12:44:57;6.80;;;6.22;;
37937;SDS011;23763;48.130;11.602;2022-09-12T12:47:24;6.63;;;6.22;;
37937;SDS011;23763;48.130;11.602;2022-09-12T12:58:55;9.50;;;8.75;;
37937;SDS011;23763;48.130;11.602;2022-09-12T13:03:33;6.43;;;6.13;;
37937;SDS011;23763;48.130;11.602;2022-09-12T13:06:01;7.63;;;7.05;;
37937;SDS011;23763;48.130;11.602;2022-09-12T13:08:33;6.47;;;6.25;;
37937;SDS011;23763;48.130;11.602;2022-09-12T13:11:06;6.68;;;6.32;;
37937;SDS011;23763;48.130;11.602;2022-09-12T13:13:39;6.82;;;6.53;;
37937;SDS011;23763;48.130;11.602;2022-09-12T13:16:07;6.22;;;6.03;;
37937;SDS011;23763;48.130;11.602;2022-09-12T13:21:18;6.60;;;6.22;;
37937;SDS011;23763;48.130;11.602;2022-09-12T13:26:46;6.70;;;6.25;;
37937;SDS011;23763;48.130;11.602;2022-09-12T13:31:51;6.78;;;6.30;;
37937;SDS011;23763;48.130;11.602;2022-09-12T13:34:30;6.80;;;6.40;;
37937;SDS011;23763;48.130;11.602;2022-09-12T13:43:28;6.10;;;5.80;;
37937;SDS011;23763;48.130;11.602;2022-09-12T13:45:42;6.13;;;5.82;;
37937;SDS011;23763;48.130;11.602;2022-09-12T13:48:20;6.72;;;6.32;;
37937;SDS011;23763;48.130;11.602;2022-09-12T13:53:16;7.03;;;6.53;;
37937;SDS011;23763;48.130;11.602;2022-09-12T13:55:46;7.50;;;7.07;;
37937;SDS011;23763;48.130;11.602;2022-09-12T13:58:18;6.68;;;6.32;;
37937;SDS011;23763;48.130;11.602;2022-09-12T14:01:02;6.95;;;6.65;;
37937;SDS011;23763;48.130;11.602;2022-09-12T14:03:39;6.80;;;6.50;;
37937;SDS011;23763;48.130;11.602;2022-09-12T14:06:26;6.72;;;6.43;;
37937;SDS011;23763;48.130;11.602;2022-09-12T14:08:53;6.95;;;6.55;;
37937;SDS011;23763;48.130;11.602;2022-09-12T14:11:28;6.80;;;6.30;;
37937;SDS011;23763;48.130;11.602;2022-09-12T14:13:57;6.72;;;6.43;;
37937;SDS011;23763;48.130;11.602;2022-09-12T14:16:28;7.50;;;7.10;;
37937;SDS011;23763;48.130;11.602;2022-09-12T14:18:59;6.45;;;6.15;;
37937;SDS011;23763;48.130;11.602;2022-09-12T14:21:32;7.22;;;6.93;;
37937;SDS011;23763;48.130;11.602;2022-09-12T14:24:00;12.98;;;11.77;;
37937;SDS011;23763;48.130;11.602;2022-09-12T14:26:29;9.73;;;9.00;;
37937;SDS011;23763;48.130;11.602;2022-09-12T14:28:59;7.28;;;6.97;;
37937;SDS011;23763;48.130;11.602;2022-09-12T14:31:29;7.20;;;6.85;;
37937;SDS011;23763;48.130;11.602;2022-09-12T14:34:17;7.47;;;7.03;;
37937;SDS011;23763;48.130;11.602;2022-09-12T14:39:16;6.82;;;6.53;;
37937;SDS011;23763;48.130;11.602;2022-09-12T14:41:50;7.65;;;7.22;;
37937;SDS011;23763;48.130;11.602;2022-09-12T14:44:24;7.22;;;6.82;;
37937;SDS011;23763;48.130;11.602;2022-09-12T14:46:51;6.90;;;6.57;;
37937;SDS011;23763;48.130;11.602;2022-09-12T14:49:19;6.80;;;6.60;;
37937;SDS011;23763;48.130;11.602;2022-09-12T14:51:55;7.25;;;6.95;;
37937;SDS011;23763;48.130;11.602;2022-09-12T14:56:52;7.32;;;6.93;;
37937;SDS011;23763;48.130;11.602;2022-09-12T14:59:19;6.78;;;6.47;;
37937;SDS011;23763;48.130;11.602;2022-09-12T15:04:44;7.03;;;6.63;;
37937;SDS011;23763;48.130;11.602;2022-09-12T15:12:49;7.82;;;7.25;;
37937;SDS011;23763;48.130;11.602;2022-09-12T15:15:37;6.90;;;6.45;;
37937;SDS011;23763;48.130;11.602;2022-09-12T15:18:04;6.72;;;6.45;;
37937;SDS011;23763;48.130;11.602;2022-09-12T15:20:32;6.35;;;6.05;;
37937;SDS011;23763;48.130;11.602;2022-09-12T15:23:03;6.93;;;6.60;;
37937;SDS011;23763;48.130;11.602;2022-09-12T15:25:30;7.25;;;6.65;;
37937;SDS011;23763;48.130;11.602;2022-09-12T15:27:56;7.40;;;6.90;;
37937;SDS011;23763;48.130;11.602;2022-09-12T15:30:21;7.45;;;7.05;;
37937;SDS011;23763;48.130;11.602;2022-09-12T15:32:47;8.27;;;7.68;;
37937;SDS011;23763;48.130;11.602;2022-09-12T15:35:17;7.13;;;6.85;;
37937;SDS011;23763;48.130;11.602;2022-09-12T15:37:46;6.65;;;6.35;;
37937;SDS011;23763;48.130;11.602;2022-09-12T15:40:12;7.53;;;6.88;;
37937;SDS011;23763;48.130;11.602;2022-09-12T15:42:38;7.60;;;7.10;;
37937;SDS011;23763;48.130;11.602;2022-09-12T15:45:26;7.00;;;6.70;;
37937;SDS011;23763;48.130;11.602;2022-09-12T15:47:52;7.13;;;6.78;;
37937;SDS011;23763;48.130;11.602;2022-09-12T15:50:18;8.70;;;7.97;;
37937;SDS011;23763;48.130;11.602;2022-09-12T15:52:44;6.60;;;6.30;;
37937;SDS011;23763;48.130;11.602;2022-09-12T15:55:18;7.50;;;7.00;;
37937;SDS011;23763;48.130;11.602;2022-09-12T15:57:48;7.68;;;7.22;;
37937;SDS011;23763;48.130;11.602;2022-09-12T16:00:15;7.15;;;6.75;;
37937;SDS011;23763;48.130;11.602;2022-09-12T16:02:42;7.00;;;6.60;;
37937;SDS011;23763;48.130;11.602;2022-09-12T16:05:13;7.38;;;7.07;;
37937;SDS011;23763;48.130;11.602;2022-09-12T16:07:41;6.93;;;6.53;;
37937;SDS011;23763;48.130;11.602;2022-09-12T16:10:12;6.38;;;5.97;;
37937;SDS011;23763;48.130;11.602;2022-09-12T16:12:39;6.78;;;6.47;;
37937;SDS011;23763;48.130;11.602;2022-09-12T16:15:05;7.45;;;7.05;;
37937;SDS011;23763;48.130;11.602;2022-09-12T16:17:31;6.65;;;6.30;;
37937;SDS011;23763;48.130;11.602;2022-09-12T16:19:56;7.38;;;6.97;;
37937;SDS011;23763;48.130;11.602;2022-09-12T16:22:22;7.78;;;7.30;;
37937;SDS011;23763;48.130;11.602;2022-09-12T16:24:48;7.57;;;7.20;;
37937;SDS011;23763;48.130;11.602;2022-09-12T16:27:13;7.30;;;6.78;;
37937;SDS011;23763;48.130;11.602;2022-09-12T16:29:39;7.65;;;7.07;;
37937;SDS011;23763;48.130;11.602;2022-09-12T16:32:05;6.57;;;6.28;;
37937;SDS011;23763;48.130;11.602;2022-09-12T16:34:31;6.40;;;6.10;;
37937;SDS011;23763;48.130;11.602;2022-09-12T16:36:56;7.22;;;6.82;;
37937;SDS011;23763;48.130;11.602;2022-09-12T16:39:22;7.43;;;6.85;;
37937;SDS011;23763;48.130;11.602;2022-09-12T16:41:48;7.22;;;6.75;;
37937;SDS011;23763;48.130;11.602;2022-09-12T16:44:13;7.32;;;6.93;;
37937;SDS011;23763;48.130;11.602;2022-09-12T16:46:39;7.10;;;6.70;;
37937;SDS011;23763;48.130;11.602;2022-09-12T16:49:05;6.53;;;6.22;;
37937;SDS011;23763;48.130;11.602;2022-09-12T16:51:32;6.82;;;6.40;;
37937;SDS011;23763;48.130;11.602;2022-09-12T16:54:01;6.90;;;6.60;;
37937;SDS011;23763;48.130;11.602;2022-09-12T16:56:28;6.70;;;6.40;;
37937;SDS011;23763;48.130;11.602;2022-09-12T16:58:54;7.53;;;7.13;;
37937;SDS011;23763;48.130;11.602;2022-09-12T17:01:24;7.35;;;7.05;;
37937;SDS011;23763;48.130;11.602;2022-09-12T17:03:53;7.00;;;6.70;;
37937;SDS011;23763;48.130;11.602;2022-09-12T17:06:20;7.50;;;6.80;;
37937;SDS011;23763;48.130;11.602;2022-09-12T17:08:48;7.90;;;7.47;;
37937;SDS011;23763;48.130;11.602;2022-09-12T17:13:50;7.18;;;6.85;;
37937;SDS011;23763;48.130;11.602;2022-09-12T17:16:17;7.55;;;7.15;;
37937;SDS011;23763;48.130;11.602;2022-09-12T17:18:44;7.47;;;7.07;;
37937;SDS011;23763;48.130;11.602;2022-09-12T17:21:10;8.00;;;7.47;;
37937;SDS011;23763;48.130;11.602;2022-09-12T17:23:37;7.22;;;6.82;;
37937;SDS011;23763;48.130;11.602;2022-09-12T17:26:04;7.20;;;6.80;;
37937;SDS011;23763;48.130;11.602;2022-09-12T17:28:30;7.15;;;6.68;;
37937;SDS011;23763;48.130;11.602;2022-09-12T17:33:22;7.50;;;7.05;;
37937;SDS011;23763;48.130;11.602;2022-09-12T17:35:49;7.57;;;7.18;;
37937;SDS011;23763;48.130;11.602;2022-09-12T17:38:14;7.60;;;7.10;;
37937;SDS011;23763;48.130;11.602;2022-09-12T17:40:40;7.45;;;7.13;;
37937;SDS011;23763;48.130;11.602;2022-09-12T17:43:06;7.45;;;7.15;;
37937;SDS011;23763;48.130;11.602;2022-09-12T17:45:32;8.27;;;7.57;;
37937;SDS011;23763;48.130;11.602;2022-09-12T17:47:58;7.50;;;6.90;;
37937;SDS011;23763;48.130;11.602;2022-09-12T17:50:23;9.30;;;8.63;;
37937;SDS011;23763;48.130;11.602;2022-09-12T17:52:49;8.05;;;7.45;;
37937;SDS011;23763;48.130;11.602;2022-09-12T17:55:15;7.55;;;7.07;;
37937;SDS011;23763;48.130;11.602;2022-09-12T17:57:41;8.15;;;7.55;;
37937;SDS011;23763;48.130;11.602;2022-09-12T18:00:09;8.10;;;7.40;;
37937;SDS011;23763;48.130;11.602;2022-09-12T18:02:35;7.43;;;6.95;;
37937;SDS011;23763;48.130;11.602;2022-09-12T18:05:01;7.45;;;6.85;;
37937;SDS011;23763;48.130;11.602;2022-09-12T18:07:29;7.70;;;7.20;;
37937;SDS011;23763;48.130;11.602;2022-09-12T18:09:55;8.25;;;7.13;;
37937;SDS011;23763;48.130;11.602;2022-09-12T18:12:22;7.30;;;6.85;;
37937;SDS011;23763;48.130;11.602;2022-09-12T18:14:48;7.93;;;7.32;;
37937;SDS011;23763;48.130;11.602;2022-09-12T18:17:14;8.10;;;7.63;;
37937;SDS011;23763;48.130;11.602;2022-09-12T18:19:40;8.13;;;7.43;;